createdAt,value
2023-03-06T00:01:18.439Z,1.17
2023-03-06T00:04:05.747Z,1.30
2023-03-06T00:06:52.735Z,1.48
2023-03-06T00:09:32.774Z,1.50
2023-03-06T00:12:19.712Z,1.33
2023-03-06T00:15:06.729Z,1.40
2023-03-06T00:17:47.431Z,1.30
2023-03-06T00:20:34.741Z,1.30
2023-03-06T00:23:21.856Z,1.33
2023-03-06T00:26:01.707Z,1.70
2023-03-06T00:28:48.790Z,1.20
2023-03-06T00:31:28.776Z,1.40
2023-03-06T00:34:16.784Z,1.50
2023-03-06T00:36:56.721Z,1.60
2023-03-06T00:39:37.306Z,1.30
2023-03-06T00:42:24.745Z,1.50
2023-03-06T00:45:12.763Z,1.30
2023-03-06T00:47:52.738Z,1.60
2023-03-06T00:50:46.720Z,1.52
2023-03-06T00:53:33.726Z,1.40
2023-03-06T00:56:20.728Z,1.40
2023-03-06T00:59:01.258Z,1.30
2023-03-06T01:01:47.753Z,1.23
2023-03-06T01:04:28.230Z,1.45
2023-03-06T01:07:14.729Z,0.90
2023-03-06T01:09:55.304Z,1.40
2023-03-06T01:12:41.726Z,1.40
2023-03-06T01:15:22.566Z,1.40
2023-03-06T01:18:08.714Z,1.33
2023-03-06T01:20:55.815Z,1.38
2023-03-06T01:23:35.706Z,1.50
2023-03-06T01:26:22.783Z,1.48
2023-03-06T01:29:03.713Z,1.50
2023-03-06T01:31:50.818Z,1.70
2023-03-06T01:34:30.713Z,1.63
2023-03-06T01:37:11.209Z,1.63
2023-03-06T01:39:57.731Z,1.63
2023-03-06T01:42:38.392Z,1.73
2023-03-06T01:45:27.738Z,1.98
2023-03-06T01:48:14.769Z,2.10
2023-03-06T01:51:08.733Z,2.22
2023-03-06T01:53:51.015Z,2.10
2023-03-06T01:56:38.721Z,1.90
2023-03-06T01:59:20.826Z,2.05
2023-03-06T02:02:09.754Z,2.17
2023-03-06T02:04:50.288Z,2.15
2023-03-06T02:07:38.735Z,2.28
2023-03-06T02:10:28.715Z,2.53
2023-03-06T02:13:09.799Z,2.22
2023-03-06T02:18:36.857Z,2.10
2023-03-06T02:21:33.710Z,2.45
2023-03-06T02:24:23.744Z,2.30
2023-03-06T02:27:11.746Z,2.60
2023-03-06T02:29:51.772Z,2.17
2023-03-06T02:32:38.811Z,2.45
2023-03-06T02:35:30.799Z,2.55
2023-03-06T02:38:22.734Z,2.78
2023-03-06T02:41:02.781Z,2.60
2023-03-06T02:43:51.745Z,3.15
2023-03-06T02:46:38.744Z,2.80
2023-03-06T02:49:19.226Z,3.70
2023-03-06T02:52:05.736Z,3.25
2023-03-06T02:54:46.308Z,3.40
2023-03-06T02:57:32.742Z,3.20
2023-03-06T03:00:20.737Z,3.15
2023-03-06T03:03:00.791Z,3.70
2023-03-06T03:05:47.743Z,3.60
2023-03-06T03:08:31.784Z,3.10
2023-03-06T03:11:18.729Z,3.50
2023-03-06T03:13:58.757Z,3.13
2023-03-06T03:16:45.726Z,3.45
2023-03-06T03:19:32.731Z,2.85
2023-03-06T03:22:13.511Z,3.55
2023-03-06T03:25:00.737Z,3.03
2023-03-06T03:27:47.743Z,3.92
2023-03-06T03:30:28.810Z,3.38
2023-03-06T03:33:15.718Z,3.40
2023-03-06T03:36:03.802Z,2.97
2023-03-06T03:38:53.723Z,2.90
2023-03-06T03:41:33.852Z,3.25
2023-03-06T03:44:21.721Z,3.17
2023-03-06T03:47:02.724Z,2.78
2023-03-06T03:49:49.744Z,2.90
2023-03-06T03:52:37.847Z,3.10
2023-03-06T03:55:18.754Z,2.92
2023-03-06T03:58:05.817Z,3.05
2023-03-06T04:00:45.741Z,3.00
2023-03-06T04:03:26.310Z,2.80
2023-03-06T04:06:12.719Z,3.03
2023-03-06T04:08:59.749Z,2.40
2023-03-06T04:11:42.788Z,2.78
2023-03-06T04:14:29.732Z,2.90
2023-03-06T04:17:17.737Z,3.08
2023-03-06T04:19:58.181Z,2.92
2023-03-06T04:22:45.737Z,3.08
2023-03-06T04:25:26.275Z,3.00
2023-03-06T04:28:15.740Z,3.22
2023-03-06T04:31:02.814Z,3.17
2023-03-06T04:33:42.789Z,2.90
2023-03-06T04:36:38.758Z,2.80
2023-03-06T04:39:21.923Z,2.80
2023-03-06T04:42:08.742Z,2.40
2023-03-06T04:44:55.729Z,2.63
2023-03-06T04:47:42.738Z,2.78
2023-03-06T04:50:24.049Z,2.65
2023-03-06T04:55:51.787Z,2.60
2023-03-06T04:58:38.735Z,2.13
2023-03-06T05:01:18.867Z,2.45
2023-03-06T05:04:05.728Z,2.30
2023-03-06T05:06:45.789Z,2.30
2023-03-06T05:09:32.728Z,2.10
2023-03-06T05:12:12.787Z,1.80
2023-03-06T05:14:59.721Z,2.30
2023-03-06T05:17:46.731Z,1.70
2023-03-06T05:20:28.714Z,1.90
2023-03-06T05:23:15.727Z,1.60
2023-03-06T05:25:57.467Z,1.83
2023-03-06T05:28:44.739Z,1.90
2023-03-06T05:31:31.800Z,1.77
2023-03-06T05:34:18.730Z,1.70
2023-03-06T05:37:06.713Z,1.50
2023-03-06T05:39:46.852Z,1.65
2023-03-06T05:42:34.747Z,1.63
2023-03-06T05:45:15.778Z,1.40
2023-03-06T05:48:02.749Z,1.50
2023-03-06T05:50:49.730Z,1.50
2023-03-06T05:53:44.742Z,1.60
2023-03-06T05:56:25.418Z,1.30
2023-03-06T05:59:11.734Z,1.20
2023-03-06T06:01:58.831Z,1.40
2023-03-06T06:04:38.705Z,1.40
2023-03-06T06:07:25.783Z,1.50
2023-03-06T06:10:05.745Z,1.23
2023-03-06T06:12:46.217Z,1.35
2023-03-06T06:15:35.737Z,1.40
2023-03-06T06:18:22.793Z,1.38
2023-03-06T06:21:02.750Z,1.40
2023-03-06T06:23:43.237Z,1.17
2023-03-06T06:26:29.730Z,1.20
2023-03-06T06:29:17.718Z,1.20
2023-03-06T06:31:58.856Z,1.10
2023-03-06T06:37:26.113Z,1.10
2023-03-06T06:40:13.741Z,0.88
2023-03-06T06:42:53.815Z,0.80
2023-03-06T06:45:40.742Z,0.82
2023-03-06T06:48:20.842Z,1.00
2023-03-06T06:51:07.766Z,0.90
2023-03-06T06:53:57.810Z,1.00
2023-03-06T06:56:37.724Z,0.73
2023-03-06T06:59:24.725Z,0.80
2023-03-06T07:02:04.801Z,0.70
2023-03-06T07:05:06.934Z,0.70
2023-03-06T07:07:46.791Z,0.75
2023-03-06T07:10:33.741Z,0.65
2023-03-06T07:13:13.802Z,0.60
2023-03-06T07:16:00.775Z,0.80
2023-03-06T07:18:47.739Z,0.73
2023-03-06T07:21:28.267Z,0.65
2023-03-06T07:24:14.766Z,0.73
2023-03-06T07:27:01.810Z,0.80
2023-03-06T07:29:41.793Z,0.90
2023-03-06T07:32:22.308Z,0.70
2023-03-06T07:35:19.745Z,0.80
2023-03-06T07:38:00.738Z,0.70
2023-03-06T07:40:47.740Z,0.70
2023-03-06T07:43:34.751Z,0.60
2023-03-06T07:46:21.795Z,1.08
2023-03-06T07:49:01.745Z,0.55
2023-03-06T07:51:48.743Z,1.38
2023-03-06T07:54:36.738Z,0.60
2023-03-06T07:57:17.288Z,0.65
2023-03-06T08:00:03.730Z,0.60
2023-03-06T08:02:46.294Z,0.60
2023-03-06T08:05:32.743Z,0.60
2023-03-06T08:08:19.789Z,0.65
2023-03-06T08:10:59.746Z,0.50
2023-03-06T08:13:40.370Z,0.60
2023-03-06T08:16:28.467Z,0.70
2023-03-06T08:19:15.809Z,0.52
2023-03-06T08:21:55.748Z,0.70
2023-03-06T08:24:36.403Z,0.50
2023-03-06T08:27:22.740Z,0.47
2023-03-06T08:30:04.170Z,0.60
2023-03-06T08:32:51.742Z,0.35
2023-03-06T08:35:32.351Z,0.40
2023-03-06T08:38:18.728Z,0.60
2023-03-06T08:43:45.738Z,0.60
2023-03-06T08:49:13.770Z,0.70
2023-03-06T08:52:07.741Z,0.40
2023-03-06T08:54:54.742Z,0.50
2023-03-06T08:57:41.743Z,0.30
2023-03-06T09:00:28.840Z,0.30
2023-03-06T09:03:08.737Z,0.77
2023-03-06T09:05:56.731Z,0.30
2023-03-06T09:08:43.735Z,0.30
2023-03-06T09:11:32.849Z,0.30
2023-03-06T09:14:13.750Z,0.50
2023-03-06T09:16:54.292Z,0.30
2023-03-06T09:19:47.742Z,0.40
2023-03-06T09:22:34.796Z,0.20
2023-03-06T09:25:16.741Z,0.30
2023-03-06T09:28:10.478Z,0.30
2023-03-06T09:30:57.795Z,0.30
2023-03-06T09:33:39.005Z,0.15
2023-03-06T09:36:42.774Z,0.30
2023-03-06T09:39:29.318Z,0.40
2023-03-06T09:42:18.771Z,0.40
2023-03-06T09:45:01.435Z,0.40
2023-03-06T09:48:15.758Z,0.30
2023-03-06T09:51:04.227Z,0.40
2023-03-06T09:54:27.768Z,0.35
2023-03-06T09:57:29.721Z,0.32
2023-03-06T10:00:29.754Z,0.40
2023-03-06T10:03:37.754Z,0.40
2023-03-06T10:06:35.812Z,0.50
2023-03-06T10:09:29.762Z,0.30
2023-03-06T10:12:19.812Z,0.50
2023-03-06T10:15:23.753Z,0.50
2023-03-06T10:18:03.837Z,0.40
2023-03-06T10:21:18.787Z,0.50
2023-03-06T10:24:01.802Z,0.30
2023-03-06T10:26:58.871Z,0.30
2023-03-06T10:30:26.761Z,0.30
2023-03-06T10:33:13.407Z,0.30
2023-03-06T10:36:05.813Z,0.45
2023-03-06T10:38:48.530Z,0.35
2023-03-06T10:41:45.392Z,0.35
2023-03-06T10:44:32.747Z,0.40
2023-03-06T10:47:43.773Z,0.30
2023-03-06T10:50:31.411Z,0.35
2023-03-06T10:53:20.781Z,0.35
2023-03-06T10:56:07.757Z,0.40
2023-03-06T10:58:47.831Z,0.20
2023-03-06T11:01:37.818Z,0.20
2023-03-06T11:04:30.036Z,0.25
2023-03-06T11:07:28.765Z,0.40
2023-03-06T11:10:33.758Z,0.40
2023-03-06T11:16:26.130Z,0.32
2023-03-06T11:19:27.234Z,0.30
2023-03-06T11:22:10.754Z,0.52
2023-03-06T11:25:01.865Z,0.40
2023-03-06T11:27:42.847Z,0.43
2023-03-06T11:30:49.784Z,0.40
2023-03-06T11:33:48.835Z,0.35
2023-03-06T11:36:56.819Z,0.30
2023-03-06T11:40:11.963Z,0.20
2023-03-06T11:43:23.781Z,0.20
2023-03-06T11:46:22.775Z,0.40
2023-03-06T11:52:32.012Z,0.32
2023-03-06T11:55:23.759Z,0.30
2023-03-06T11:58:37.790Z,0.38
2023-03-06T12:01:28.280Z,0.60
2023-03-06T12:04:23.778Z,0.55
2023-03-06T12:07:22.782Z,0.60
2023-03-06T12:13:19.770Z,0.82
2023-03-06T12:16:09.848Z,0.60
2023-03-06T12:19:21.838Z,0.80
2023-03-06T12:22:13.757Z,0.80
2023-03-06T12:25:09.453Z,0.73
2023-03-06T12:28:23.785Z,0.70
2023-03-06T12:31:31.834Z,1.00
2023-03-06T12:34:40.860Z,0.90
2023-03-06T12:37:46.783Z,1.10
2023-03-06T12:40:52.770Z,1.10
2023-03-06T12:44:11.809Z,1.23
2023-03-06T12:46:58.869Z,0.80
2023-03-06T12:49:50.796Z,1.30
2023-03-06T12:52:38.830Z,1.35
2023-03-06T12:55:27.798Z,1.20
2023-03-06T12:58:43.792Z,1.10
2023-03-06T13:01:57.871Z,0.80
2023-03-06T13:05:06.791Z,0.90
2023-03-06T13:08:12.178Z,1.35
2023-03-06T13:11:16.793Z,0.98
2023-03-06T13:13:57.528Z,1.38
2023-03-06T13:16:45.884Z,1.55
2023-03-06T13:19:27.102Z,1.85
2023-03-06T13:22:15.814Z,1.80
2023-03-06T13:25:22.872Z,1.83
2023-03-06T13:28:09.805Z,1.80
2023-03-06T13:30:52.027Z,2.47
2023-03-06T13:33:45.777Z,2.30
2023-03-06T13:39:28.809Z,2.40
2023-03-06T13:42:30.548Z,2.47
2023-03-06T13:45:40.785Z,2.67
2023-03-06T13:48:44.905Z,2.75
2023-03-06T13:51:41.803Z,2.80
2023-03-06T13:54:48.805Z,3.17
2023-03-06T13:57:53.867Z,3.28
2023-03-06T14:01:02.890Z,3.28
2023-03-06T14:04:07.827Z,3.65
2023-03-06T14:07:05.647Z,4.10
2023-03-06T14:09:56.805Z,4.47
2023-03-06T14:12:44.439Z,4.30
2023-03-06T14:15:35.862Z,4.18
2023-03-06T14:18:25.854Z,4.10
2023-03-06T14:21:19.798Z,4.18
2023-03-06T14:24:08.841Z,3.95
2023-03-06T14:26:57.816Z,4.47
2023-03-06T14:29:46.787Z,4.20
2023-03-06T14:32:33.858Z,3.83
2023-03-06T14:35:32.822Z,4.10
2023-03-06T14:38:21.795Z,3.47
2023-03-06T14:41:02.882Z,2.90
2023-03-06T14:43:49.794Z,3.10
2023-03-06T14:46:29.871Z,3.38
2023-03-06T14:49:18.802Z,3.13
2023-03-06T14:52:01.881Z,2.90
2023-03-06T14:54:50.805Z,3.22
2023-03-06T14:57:30.857Z,2.95
2023-03-06T15:00:23.858Z,2.70
2023-03-06T15:03:11.799Z,2.92
2023-03-06T15:05:59.830Z,2.83
2023-03-06T15:08:49.797Z,2.63
2023-03-06T15:11:52.045Z,3.10
2023-03-06T15:15:16.797Z,2.83
2023-03-06T15:17:57.493Z,3.13
2023-03-06T15:20:54.820Z,2.85
2023-03-06T15:23:44.850Z,2.95
2023-03-06T15:26:39.828Z,2.58
2023-03-06T15:29:24.208Z,3.20
2023-03-06T15:32:27.807Z,2.88
2023-03-06T15:35:33.310Z,3.08
2023-03-06T15:38:56.803Z,2.55
2023-03-06T15:41:45.796Z,2.58
2023-03-06T15:44:25.891Z,3.00
2023-03-06T15:47:15.802Z,2.80
2023-03-06T15:50:03.789Z,2.90
2023-03-06T15:52:58.814Z,2.60
2023-03-06T15:55:45.804Z,2.55
2023-03-06T16:01:14.867Z,2.97
2023-03-06T16:03:54.917Z,3.30
2023-03-06T16:06:41.790Z,3.20
2023-03-06T16:12:09.812Z,4.00
2023-03-06T16:17:36.803Z,4.40
2023-03-06T16:23:10.582Z,4.60
2023-03-06T16:26:02.852Z,5.65
2023-03-06T16:28:50.798Z,6.68
2023-03-06T16:31:30.854Z,7.00
2023-03-06T16:34:17.810Z,6.72
2023-03-06T16:37:04.821Z,7.25
2023-03-06T16:42:38.797Z,6.50
2023-03-06T16:45:27.087Z,6.97
2023-03-06T16:48:06.798Z,6.75
2023-03-06T16:50:53.805Z,7.25
2023-03-06T16:53:47.804Z,7.65
2023-03-06T16:56:34.851Z,6.13
2023-03-06T16:59:22.827Z,6.97
2023-03-06T17:02:09.820Z,7.18
2023-03-06T17:04:56.814Z,7.53
2023-03-06T17:07:37.946Z,7.28
2023-03-06T17:13:16.814Z,7.20
2023-03-06T17:16:05.860Z,7.30
2023-03-06T17:18:46.493Z,7.13
2023-03-06T17:21:33.795Z,7.43
2023-03-06T17:24:14.310Z,7.78
2023-03-06T17:26:54.803Z,7.03
2023-03-06T17:32:21.853Z,6.65
2023-03-06T17:35:01.877Z,6.95
2023-03-06T17:37:48.818Z,7.28
2023-03-06T17:40:35.802Z,7.75
2023-03-06T17:46:09.916Z,7.10
2023-03-06T17:48:56.817Z,7.80
2023-03-06T17:51:43.795Z,7.32
2023-03-06T17:54:31.011Z,7.90
2023-03-06T17:57:11.802Z,7.20
2023-03-06T18:02:54.880Z,7.70
2023-03-06T18:05:34.872Z,7.50
2023-03-06T18:08:22.815Z,7.88
2023-03-06T18:11:11.879Z,7.55
2023-03-06T18:13:58.793Z,8.50
2023-03-06T18:19:25.802Z,8.00
2023-03-06T18:22:05.866Z,8.55
2023-03-06T18:24:52.819Z,8.48
2023-03-06T18:27:39.824Z,8.32
2023-03-06T18:30:26.866Z,8.48
2023-03-06T18:33:06.794Z,8.85
2023-03-06T18:35:47.358Z,8.80
2023-03-06T18:38:33.784Z,8.77
2023-03-06T18:41:20.882Z,8.60
2023-03-06T18:44:02.818Z,9.57
2023-03-06T18:46:49.867Z,8.60
2023-03-06T18:49:29.809Z,9.07
2023-03-06T18:52:10.338Z,8.73
2023-03-06T18:54:57.818Z,10.10
2023-03-06T18:57:45.862Z,8.80
2023-03-06T19:00:26.824Z,9.23
2023-03-06T19:05:58.800Z,8.95
2023-03-06T19:08:46.882Z,8.73
2023-03-06T19:11:27.805Z,9.15
2023-03-06T19:16:54.903Z,9.20
2023-03-06T19:19:35.332Z,8.98
2023-03-06T19:22:21.810Z,9.95
2023-03-06T19:25:03.824Z,9.18
2023-03-06T19:27:53.822Z,9.43
2023-03-06T19:30:40.904Z,9.32
2023-03-06T19:33:21.832Z,9.25
2023-03-06T19:38:49.831Z,9.85
2023-03-06T19:41:30.419Z,9.30
2023-03-06T19:44:16.829Z,10.35
2023-03-06T19:46:57.309Z,9.82
2023-03-06T19:49:44.826Z,10.27
2023-03-06T19:52:25.465Z,9.68
2023-03-06T19:55:11.825Z,9.55
2023-03-06T19:57:53.789Z,10.00
2023-03-06T20:00:40.837Z,10.00
2023-03-06T20:03:27.864Z,10.18
2023-03-06T20:06:07.824Z,9.95
2023-03-06T20:08:54.834Z,10.23
2023-03-06T20:11:42.813Z,9.75
2023-03-06T20:14:29.826Z,10.45
2023-03-06T20:17:09.872Z,9.73
2023-03-06T20:19:56.825Z,9.98
2023-03-06T20:22:37.921Z,10.85
2023-03-06T20:28:04.894Z,10.02
2023-03-06T20:30:51.915Z,10.43
2023-03-06T20:33:38.809Z,10.75
2023-03-06T20:36:46.802Z,10.45
2023-03-06T20:39:34.821Z,10.30
2023-03-06T20:42:15.338Z,10.20
2023-03-06T20:45:01.818Z,10.45
2023-03-06T20:47:47.097Z,10.68
2023-03-06T20:50:33.815Z,10.63
2023-03-06T20:53:20.805Z,11.23
2023-03-06T20:56:00.861Z,10.73
2023-03-06T20:58:47.813Z,10.85
2023-03-06T21:01:47.889Z,9.90
2023-03-06T21:04:28.363Z,10.35
2023-03-06T21:07:14.801Z,10.50
2023-03-06T21:10:01.841Z,10.77
2023-03-06T21:12:48.814Z,11.43
2023-03-06T21:15:30.197Z,11.07
2023-03-06T21:20:57.304Z,10.13
2023-03-06T21:23:43.814Z,10.07
2023-03-06T21:26:32.834Z,10.55
2023-03-06T21:29:19.831Z,10.70
2023-03-06T21:32:06.893Z,10.02
2023-03-06T21:34:46.867Z,11.10
2023-03-06T21:37:33.818Z,9.45
2023-03-06T21:40:21.815Z,10.13
2023-03-06T21:43:08.826Z,9.68
2023-03-06T21:45:57.423Z,9.77
2023-03-06T21:48:43.807Z,9.43
2023-03-06T21:51:25.967Z,8.80
2023-03-06T21:54:13.807Z,8.68
2023-03-06T21:56:53.943Z,7.60
2023-03-06T21:59:40.812Z,7.30
2023-03-06T22:02:27.829Z,7.20
2023-03-06T22:05:08.594Z,7.38
2023-03-06T22:07:54.828Z,6.82
2023-03-06T22:10:48.362Z,7.00
2023-03-06T22:13:27.859Z,7.07
2023-03-06T22:16:14.845Z,6.30
2023-03-06T22:19:03.816Z,6.32
2023-03-06T22:21:44.345Z,5.80
2023-03-06T22:24:30.817Z,5.78
2023-03-06T22:27:11.291Z,5.05
2023-03-06T22:29:59.818Z,5.10
2023-03-06T22:32:46.945Z,4.95
2023-03-06T22:35:26.936Z,5.00
2023-03-06T22:38:13.812Z,4.22
2023-03-06T22:40:53.901Z,4.30
2023-03-06T22:43:41.821Z,4.00
2023-03-06T22:46:23.929Z,3.65
2023-03-06T22:49:11.812Z,3.92
2023-03-06T22:51:51.870Z,3.10
2023-03-06T22:54:38.823Z,3.35
2023-03-06T22:57:18.879Z,3.50
2023-03-06T23:00:06.810Z,2.88
2023-03-06T23:02:47.072Z,3.17
2023-03-06T23:05:29.381Z,2.75
2023-03-06T23:08:08.824Z,2.83
2023-03-06T23:10:55.809Z,2.83
2023-03-06T23:17:06.810Z,2.40
2023-03-06T23:20:08.946Z,2.53
2023-03-06T23:23:14.826Z,2.53
2023-03-06T23:25:59.321Z,2.50
2023-03-06T23:28:45.820Z,2.35
2023-03-06T23:31:28.958Z,2.45
2023-03-06T23:34:17.831Z,2.28
2023-03-06T23:36:58.285Z,2.53
2023-03-06T23:39:44.830Z,1.92
2023-03-06T23:42:31.874Z,2.13
2023-03-06T23:45:13.808Z,2.20
2023-03-06T23:47:54.389Z,2.10
2023-03-06T23:50:48.846Z,2.53
2023-03-06T23:53:29.303Z,2.80
2023-03-06T23:56:18.860Z,2.92
2023-03-06T23:58:59.325Z,3.03
